createdAt,value
2023-03-31T00:01:26.465Z,26.80
2023-03-31T00:04:03.789Z,32.10
2023-03-31T00:06:41.877Z,28.30
2023-03-31T00:09:22.175Z,25.80
2023-03-31T00:11:51.481Z,27.20
2023-03-31T00:14:20.370Z,27.00
2023-03-31T00:16:48.658Z,31.30
2023-03-31T00:19:20.819Z,26.80
2023-03-31T00:21:49.217Z,27.00
2023-03-31T00:24:17.761Z,26.70
2023-03-31T00:26:47.931Z,26.10
2023-03-31T00:29:16.553Z,29.20
2023-03-31T00:31:44.727Z,27.40
2023-03-31T00:34:12.899Z,23.00
2023-03-31T00:36:47.721Z,22.40
2023-03-31T00:39:19.630Z,25.00
2023-03-31T00:41:48.160Z,19.90
2023-03-31T00:44:27.783Z,23.50
2023-03-31T00:47:08.125Z,18.40
2023-03-31T00:49:47.405Z,19.10
2023-03-31T00:52:21.602Z,23.80
2023-03-31T00:54:51.787Z,24.50
2023-03-31T00:57:19.962Z,22.40
2023-03-31T00:59:50.941Z,25.20
2023-03-31T01:02:21.163Z,21.60
2023-03-31T01:04:54.916Z,25.70
2023-03-31T01:07:43.588Z,26.60
2023-03-31T01:10:12.326Z,26.20
2023-03-31T01:12:41.958Z,25.60
2023-03-31T01:15:10.693Z,25.10
2023-03-31T01:17:41.162Z,21.60
2023-03-31T01:20:12.582Z,19.10
2023-03-31T01:22:49.626Z,20.10
2023-03-31T01:25:17.620Z,21.20
2023-03-31T01:27:58.765Z,24.40
2023-03-31T01:31:25.841Z,20.00
2023-03-31T01:34:15.689Z,20.20
2023-03-31T01:36:47.407Z,20.10
2023-03-31T01:39:41.042Z,21.80
2023-03-31T01:42:19.008Z,20.20
2023-03-31T01:45:12.493Z,16.80
2023-03-31T01:48:13.089Z,16.20
2023-03-31T01:50:58.122Z,16.50
2023-03-31T01:53:28.897Z,20.70
2023-03-31T01:56:25.208Z,19.80
2023-03-31T01:59:02.564Z,16.80
2023-03-31T02:01:38.113Z,16.60
2023-03-31T02:04:18.797Z,19.40
2023-03-31T02:06:53.016Z,13.10
2023-03-31T02:09:23.828Z,15.40
2023-03-31T02:11:51.971Z,22.90
2023-03-31T02:14:22.749Z,14.20
2023-03-31T02:17:08.385Z,19.10
2023-03-31T02:19:40.236Z,16.80
2023-03-31T02:22:08.497Z,18.00
2023-03-31T02:24:37.062Z,16.60
2023-03-31T02:27:28.314Z,17.10
2023-03-31T02:29:56.923Z,16.00
2023-03-31T02:32:29.358Z,16.50
2023-03-31T02:34:58.186Z,22.20
2023-03-31T02:37:26.433Z,16.10
2023-03-31T02:39:59.076Z,16.80
2023-03-31T02:42:27.558Z,16.00
2023-03-31T02:45:04.778Z,17.20
2023-03-31T02:47:33.366Z,17.00
2023-03-31T02:50:02.009Z,15.70
2023-03-31T02:52:38.871Z,13.20
2023-03-31T02:55:43.805Z,16.90
2023-03-31T02:58:22.140Z,15.30
2023-03-31T03:00:57.517Z,13.60
2023-03-31T03:03:54.656Z,13.50
2023-03-31T03:06:45.431Z,13.00
2023-03-31T03:09:37.421Z,13.10
2023-03-31T03:12:31.651Z,17.20
2023-03-31T03:15:06.086Z,15.70
2023-03-31T03:17:43.782Z,15.50
2023-03-31T03:20:12.064Z,14.40
2023-03-31T03:22:40.759Z,17.70
2023-03-31T03:25:11.736Z,16.00
2023-03-31T03:27:40.736Z,16.90
2023-03-31T03:30:12.779Z,19.50
2023-03-31T03:32:43.264Z,18.30
2023-03-31T03:35:11.465Z,18.20
2023-03-31T03:37:39.646Z,16.60
2023-03-31T03:40:08.864Z,24.20
2023-03-31T03:42:38.429Z,17.30
2023-03-31T03:45:12.288Z,17.30
2023-03-31T03:47:41.008Z,17.90
2023-03-31T03:50:10.246Z,14.80
2023-03-31T03:52:39.286Z,17.00
2023-03-31T03:55:08.234Z,17.80
2023-03-31T03:57:37.316Z,22.10
2023-03-31T04:00:12.660Z,17.30
2023-03-31T04:02:42.427Z,21.60
2023-03-31T04:05:10.889Z,17.90
2023-03-31T04:07:39.435Z,20.00
2023-03-31T04:10:09.043Z,19.00
2023-03-31T04:12:39.428Z,20.30
2023-03-31T04:15:07.864Z,21.70
2023-03-31T04:17:41.057Z,18.20
2023-03-31T04:20:10.245Z,19.80
2023-03-31T04:22:41.640Z,19.20
2023-03-31T04:25:16.469Z,16.10
2023-03-31T04:27:55.368Z,19.00
2023-03-31T04:30:31.192Z,17.00
2023-03-31T04:33:02.731Z,17.90
2023-03-31T04:35:50.396Z,17.80
2023-03-31T04:38:21.592Z,17.10
2023-03-31T04:40:51.167Z,17.80
2023-03-31T04:43:20.462Z,14.70
2023-03-31T04:45:48.486Z,19.90
2023-03-31T04:48:19.401Z,19.10
2023-03-31T04:50:48.852Z,16.80
2023-03-31T04:53:17.086Z,17.80
2023-03-31T04:55:46.282Z,17.40
2023-03-31T04:58:14.415Z,18.00
2023-03-31T05:00:44.134Z,16.80
2023-03-31T05:03:12.793Z,22.90
2023-03-31T05:05:40.859Z,20.70
2023-03-31T05:08:09.134Z,21.80
2023-03-31T05:10:46.805Z,17.70
2023-03-31T05:13:16.589Z,16.20
2023-03-31T05:15:45.511Z,18.30
2023-03-31T05:18:13.814Z,18.20
2023-03-31T05:20:42.274Z,23.90
2023-03-31T05:23:11.710Z,25.70
2023-03-31T05:25:42.418Z,21.90
2023-03-31T05:28:11.530Z,18.70
2023-03-31T05:30:42.209Z,18.80
2023-03-31T05:33:10.910Z,18.50
2023-03-31T05:35:39.311Z,22.10
2023-03-31T05:38:08.105Z,22.60
2023-03-31T05:40:37.543Z,26.60
2023-03-31T05:43:05.478Z,23.60
2023-03-31T05:45:34.806Z,20.50
2023-03-31T05:48:04.249Z,18.80
2023-03-31T05:50:32.613Z,19.40
2023-03-31T05:53:00.837Z,19.50
2023-03-31T05:55:33.503Z,21.70
2023-03-31T05:58:01.995Z,19.80
2023-03-31T06:00:29.974Z,22.00
2023-03-31T06:03:10.109Z,24.30
2023-03-31T06:05:39.498Z,22.70
2023-03-31T06:08:07.745Z,20.90
2023-03-31T06:10:38.512Z,23.80
2023-03-31T06:13:06.452Z,22.60
2023-03-31T06:15:40.841Z,24.60
2023-03-31T06:18:11.333Z,24.60
2023-03-31T06:20:39.450Z,23.80
2023-03-31T06:23:07.850Z,23.40
2023-03-31T06:25:50.402Z,30.60
2023-03-31T06:28:20.294Z,32.70
2023-03-31T06:30:48.294Z,49.40
2023-03-31T06:33:17.310Z,49.20
2023-03-31T06:35:45.523Z,46.50
2023-03-31T06:38:14.471Z,49.10
2023-03-31T06:40:42.631Z,44.80
2023-03-31T06:43:10.890Z,50.70
2023-03-31T06:45:39.096Z,49.00
2023-03-31T06:48:07.664Z,41.00
2023-03-31T06:50:38.674Z,42.70
2023-03-31T06:53:06.974Z,31.40
2023-03-31T06:55:35.637Z,31.40
2023-03-31T06:58:04.629Z,33.90
2023-03-31T07:00:32.845Z,24.30
2023-03-31T07:03:25.300Z,31.70
2023-03-31T07:05:54.582Z,23.70
2023-03-31T07:08:24.051Z,27.80
2023-03-31T07:10:57.984Z,22.10
2023-03-31T07:13:26.402Z,21.20
2023-03-31T07:15:54.649Z,21.90
2023-03-31T07:18:26.302Z,25.30
2023-03-31T07:20:54.666Z,26.50
2023-03-31T07:23:23.059Z,27.70
2023-03-31T07:25:53.275Z,41.80
2023-03-31T07:28:21.717Z,47.70
2023-03-31T07:30:49.737Z,52.80
2023-03-31T07:33:20.883Z,55.30
2023-03-31T07:35:59.939Z,57.30
2023-03-31T07:38:36.667Z,69.30
2023-03-31T07:41:09.215Z,56.10
2023-03-31T07:43:38.414Z,50.30
2023-03-31T07:46:08.510Z,45.20
2023-03-31T07:48:36.829Z,47.40
2023-03-31T07:51:06.753Z,48.10
2023-03-31T07:53:37.523Z,70.90
2023-03-31T07:56:09.871Z,76.60
2023-03-31T07:58:39.733Z,59.30
2023-03-31T08:01:10.190Z,59.90
2023-03-31T08:03:39.346Z,61.40
2023-03-31T08:06:07.753Z,51.90
2023-03-31T08:08:38.391Z,38.70
2023-03-31T08:11:07.829Z,39.00
2023-03-31T08:13:38.889Z,28.00
2023-03-31T08:16:07.011Z,33.60
2023-03-31T08:18:35.808Z,38.30
2023-03-31T08:21:04.083Z,32.50
2023-03-31T08:23:32.501Z,56.70
2023-03-31T08:26:17.697Z,38.70
2023-03-31T08:28:48.737Z,49.90
2023-03-31T08:31:18.794Z,48.20
2023-03-31T08:33:47.156Z,36.00
2023-03-31T08:36:15.150Z,48.20
2023-03-31T08:38:48.044Z,46.40
2023-03-31T08:41:34.394Z,39.90
2023-03-31T08:44:05.768Z,39.90
2023-03-31T08:46:35.700Z,78.10
2023-03-31T08:49:04.867Z,59.60
2023-03-31T08:51:35.645Z,59.20
2023-03-31T08:54:08.126Z,57.40
2023-03-31T08:56:39.301Z,75.70
2023-03-31T08:59:13.178Z,40.00
2023-03-31T09:02:07.693Z,46.10
2023-03-31T09:04:55.094Z,47.00
2023-03-31T09:07:40.536Z,65.10
2023-03-31T09:10:12.736Z,42.90
2023-03-31T09:13:07.734Z,37.50
2023-03-31T09:15:53.467Z,39.80
2023-03-31T09:18:32.453Z,43.50
2023-03-31T09:21:15.791Z,44.00
2023-03-31T09:24:26.033Z,33.90
2023-03-31T09:27:01.435Z,42.00
2023-03-31T09:29:47.760Z,31.00
2023-03-31T09:32:18.596Z,41.50
2023-03-31T09:34:47.872Z,45.00
2023-03-31T09:37:15.860Z,61.50
2023-03-31T09:39:44.818Z,51.00
2023-03-31T09:42:13.552Z,44.50
2023-03-31T09:44:43.638Z,46.30
2023-03-31T09:47:39.140Z,35.40
2023-03-31T09:50:07.880Z,35.50
2023-03-31T09:52:41.677Z,35.30
2023-03-31T09:55:39.002Z,28.70
2023-03-31T09:58:08.168Z,32.40
2023-03-31T10:00:37.573Z,36.20
2023-03-31T10:03:09.024Z,30.20
2023-03-31T10:05:50.092Z,43.90
2023-03-31T10:08:28.033Z,36.20
2023-03-31T10:11:03.175Z,31.10
2023-03-31T10:13:45.589Z,35.90
2023-03-31T10:16:24.573Z,37.10
2023-03-31T10:18:52.869Z,32.10
2023-03-31T10:21:27.236Z,28.30
2023-03-31T10:23:56.292Z,28.00
2023-03-31T10:26:28.687Z,29.50
2023-03-31T10:28:57.763Z,26.60
2023-03-31T10:31:27.286Z,21.20
2023-03-31T10:33:55.394Z,19.20
2023-03-31T10:36:27.637Z,26.10
2023-03-31T10:38:56.003Z,19.90
2023-03-31T10:41:28.625Z,16.10
2023-03-31T10:43:58.276Z,30.20
2023-03-31T10:46:47.553Z,21.80
2023-03-31T10:49:22.269Z,19.90
2023-03-31T10:51:57.851Z,18.60
2023-03-31T10:54:26.736Z,24.40
2023-03-31T10:56:56.573Z,16.60
2023-03-31T10:59:42.931Z,24.00
2023-03-31T11:02:29.134Z,18.50
2023-03-31T11:05:22.593Z,18.20
2023-03-31T11:08:05.721Z,24.10
2023-03-31T11:11:09.336Z,18.50
2023-03-31T11:13:53.020Z,23.70
2023-03-31T11:16:28.321Z,26.90
2023-03-31T11:19:29.518Z,29.50
2023-03-31T11:22:02.043Z,21.60
2023-03-31T11:24:52.975Z,24.00
2023-03-31T11:27:23.695Z,30.50
2023-03-31T11:29:54.414Z,27.50
2023-03-31T11:32:48.695Z,23.60
2023-03-31T11:35:46.413Z,25.20
2023-03-31T11:38:39.921Z,22.00
2023-03-31T11:41:21.739Z,34.70
2023-03-31T11:43:51.930Z,28.90
2023-03-31T11:46:51.441Z,22.50
2023-03-31T11:49:23.091Z,20.20
2023-03-31T11:52:09.953Z,19.40
2023-03-31T11:54:44.623Z,19.90
2023-03-31T11:57:35.347Z,19.00
2023-03-31T12:00:21.244Z,16.80
2023-03-31T12:03:09.925Z,18.00
2023-03-31T12:05:46.287Z,13.40
2023-03-31T12:08:40.913Z,15.80
2023-03-31T12:11:14.641Z,17.50
2023-03-31T12:13:46.235Z,18.60
2023-03-31T12:16:24.311Z,16.60
2023-03-31T12:19:11.055Z,26.00
2023-03-31T12:21:39.379Z,19.20
2023-03-31T12:24:11.933Z,14.10
2023-03-31T12:26:43.013Z,16.20
2023-03-31T12:29:33.084Z,20.50
2023-03-31T12:32:25.696Z,24.90
2023-03-31T12:35:02.185Z,15.10
2023-03-31T12:37:57.196Z,19.90
2023-03-31T12:40:31.533Z,20.60
2023-03-31T12:43:40.932Z,23.90
2023-03-31T12:47:03.699Z,17.70
2023-03-31T12:50:17.275Z,16.40
2023-03-31T12:53:15.802Z,22.60
2023-03-31T12:55:52.134Z,19.50
2023-03-31T12:58:25.233Z,19.20
2023-03-31T13:01:08.384Z,17.30
2023-03-31T13:03:45.150Z,19.50
2023-03-31T13:06:28.460Z,19.00
2023-03-31T13:09:11.412Z,14.60
2023-03-31T13:11:47.953Z,18.00
2023-03-31T13:14:23.709Z,14.40
2023-03-31T13:17:12.492Z,20.30
2023-03-31T13:19:42.007Z,14.40
2023-03-31T13:22:35.048Z,16.20
2023-03-31T13:25:29.690Z,19.60
2023-03-31T13:27:59.297Z,15.70
2023-03-31T13:31:02.212Z,25.30
2023-03-31T13:33:51.529Z,18.80
2023-03-31T13:36:25.581Z,17.10
2023-03-31T13:39:11.079Z,15.50
2023-03-31T13:42:03.928Z,16.00
2023-03-31T13:44:51.502Z,15.10
2023-03-31T13:49:21.820Z,14.00
2023-03-31T13:52:01.980Z,17.40
2023-03-31T13:54:36.767Z,14.30
2023-03-31T13:57:51.696Z,16.90
2023-03-31T14:00:46.930Z,18.50
2023-03-31T14:03:23.073Z,12.20
2023-03-31T14:06:15.376Z,13.80
2023-03-31T14:08:58.186Z,18.30
2023-03-31T14:11:26.923Z,20.90
2023-03-31T14:14:06.585Z,15.30
2023-03-31T14:16:38.586Z,18.00
2023-03-31T14:19:44.757Z,20.80
2023-03-31T14:22:32.452Z,18.30
2023-03-31T14:25:24.785Z,16.50
2023-03-31T14:28:21.812Z,22.60
2023-03-31T14:31:20.568Z,14.20
2023-03-31T14:34:16.598Z,15.30
2023-03-31T14:37:13.844Z,11.60
2023-03-31T14:39:51.530Z,14.60
2023-03-31T14:44:48.793Z,12.90
2023-03-31T14:47:29.228Z,14.70
2023-03-31T14:50:13.363Z,15.20
2023-03-31T14:52:55.770Z,17.20
2023-03-31T14:55:28.607Z,14.80
2023-03-31T14:58:03.890Z,22.00
2023-03-31T15:00:32.979Z,17.30
2023-03-31T15:03:20.877Z,20.30
2023-03-31T15:05:50.273Z,18.20
2023-03-31T15:08:20.759Z,19.40
2023-03-31T15:10:58.871Z,26.60
2023-03-31T15:13:40.941Z,26.20
2023-03-31T15:16:29.723Z,37.40
2023-03-31T15:19:07.760Z,24.10
2023-03-31T15:21:37.672Z,23.80
2023-03-31T15:24:06.071Z,20.30
2023-03-31T15:26:41.491Z,15.80
2023-03-31T15:29:34.791Z,17.40
2023-03-31T15:32:13.781Z,20.30
2023-03-31T15:34:43.457Z,15.60
2023-03-31T15:37:14.354Z,19.20
2023-03-31T15:39:45.319Z,13.40
2023-03-31T15:42:13.321Z,21.50
2023-03-31T15:44:58.285Z,21.10
2023-03-31T15:47:29.596Z,21.50
2023-03-31T15:50:04.519Z,22.50
2023-03-31T15:52:35.618Z,21.90
2023-03-31T15:55:23.881Z,17.30
2023-03-31T15:57:52.009Z,17.50
2023-03-31T16:00:43.310Z,25.60
2023-03-31T16:03:17.546Z,21.60
2023-03-31T16:05:55.820Z,18.60
2023-03-31T16:08:37.554Z,16.70
2023-03-31T16:11:08.704Z,22.30
2023-03-31T16:13:47.528Z,18.30
2023-03-31T16:16:17.759Z,24.00
2023-03-31T16:18:51.170Z,18.40
2023-03-31T16:21:25.097Z,19.10
2023-03-31T16:23:54.334Z,23.40
2023-03-31T16:26:28.936Z,17.60
2023-03-31T16:28:57.744Z,19.60
2023-03-31T16:31:31.197Z,20.90
2023-03-31T16:34:00.038Z,22.00
2023-03-31T16:36:28.114Z,21.70
2023-03-31T16:38:58.158Z,20.50
2023-03-31T16:41:33.397Z,19.60
2023-03-31T16:44:01.538Z,20.60
2023-03-31T16:46:29.854Z,20.10
2023-03-31T16:48:58.257Z,21.50
2023-03-31T16:51:26.586Z,19.30
2023-03-31T16:53:57.567Z,17.90
2023-03-31T16:56:27.409Z,24.20
2023-03-31T16:58:55.991Z,21.60
2023-03-31T17:01:23.884Z,21.80
2023-03-31T17:03:52.134Z,41.60
2023-03-31T17:06:20.238Z,50.30
2023-03-31T17:08:48.329Z,26.40
2023-03-31T17:11:17.989Z,22.70
2023-03-31T17:13:46.649Z,23.50
2023-03-31T17:16:19.316Z,22.80
2023-03-31T17:18:53.334Z,25.10
2023-03-31T17:21:24.802Z,20.60
2023-03-31T17:23:55.186Z,18.50
2023-03-31T17:26:24.240Z,21.60
2023-03-31T17:28:52.783Z,22.50
2023-03-31T17:31:21.609Z,22.20
2023-03-31T17:33:49.552Z,22.90
2023-03-31T17:36:22.329Z,24.30
2023-03-31T17:38:50.959Z,24.10
2023-03-31T17:41:18.955Z,24.00
2023-03-31T17:43:50.431Z,21.80
2023-03-31T17:46:19.119Z,23.50
2023-03-31T17:48:48.605Z,23.80
2023-03-31T17:51:19.805Z,21.40
2023-03-31T17:53:57.608Z,22.60
2023-03-31T17:56:28.619Z,23.30
2023-03-31T17:58:57.409Z,29.20
2023-03-31T18:01:25.688Z,20.80
2023-03-31T18:03:55.665Z,23.80
2023-03-31T18:06:27.714Z,25.70
2023-03-31T18:08:57.117Z,24.20
2023-03-31T18:11:30.453Z,22.80
2023-03-31T18:14:11.642Z,27.90
2023-03-31T18:16:40.440Z,26.80
2023-03-31T18:19:09.710Z,24.60
2023-03-31T18:21:38.723Z,28.10
2023-03-31T18:24:07.312Z,21.50
2023-03-31T18:26:35.767Z,25.40
2023-03-31T18:29:04.860Z,27.80
2023-03-31T18:31:33.477Z,24.90
2023-03-31T18:34:02.431Z,25.80
2023-03-31T18:36:32.471Z,26.00
2023-03-31T18:39:00.585Z,24.70
2023-03-31T18:41:32.280Z,29.60
2023-03-31T18:44:01.562Z,27.00
2023-03-31T18:46:29.631Z,30.70
2023-03-31T18:48:58.774Z,27.80
2023-03-31T18:51:26.831Z,28.50
2023-03-31T18:53:55.336Z,25.80
2023-03-31T18:56:23.982Z,26.00
2023-03-31T18:58:52.890Z,28.70
2023-03-31T19:01:21.127Z,28.10
2023-03-31T19:03:50.210Z,28.60
2023-03-31T19:06:22.495Z,29.70
2023-03-31T19:08:52.152Z,33.10
2023-03-31T19:11:20.329Z,34.50
2023-03-31T19:13:48.263Z,29.50
2023-03-31T19:16:41.909Z,31.00
2023-03-31T19:21:41.796Z,30.20
2023-03-31T19:24:09.934Z,28.60
2023-03-31T19:26:42.048Z,29.00
2023-03-31T19:29:09.974Z,25.40
2023-03-31T19:31:45.164Z,26.50
2023-03-31T19:34:14.154Z,26.10
2023-03-31T19:36:42.795Z,26.10
2023-03-31T19:39:11.746Z,27.00
2023-03-31T19:41:39.825Z,31.70
2023-03-31T19:44:07.753Z,30.80
2023-03-31T19:46:36.205Z,28.60
2023-03-31T19:49:04.449Z,27.10
2023-03-31T19:51:32.802Z,25.30
2023-03-31T19:54:00.837Z,25.50
2023-03-31T19:56:33.320Z,27.00
2023-03-31T19:59:02.795Z,31.20
2023-03-31T20:01:31.979Z,26.80
2023-03-31T20:04:05.176Z,26.90
2023-03-31T20:06:34.112Z,27.20
2023-03-31T20:09:04.812Z,29.90
2023-03-31T20:11:34.543Z,24.40
2023-03-31T20:14:03.550Z,24.60
2023-03-31T20:16:31.747Z,25.20
2023-03-31T20:19:04.195Z,24.00
2023-03-31T20:21:36.465Z,23.40
2023-03-31T20:24:06.546Z,24.30
2023-03-31T20:26:36.340Z,24.70
2023-03-31T20:29:04.518Z,24.30
2023-03-31T20:31:40.086Z,24.50
2023-03-31T20:34:12.750Z,26.70
2023-03-31T20:36:41.957Z,24.00
2023-03-31T20:39:11.190Z,24.90
2023-03-31T20:41:40.204Z,23.30
2023-03-31T20:44:12.020Z,26.10
2023-03-31T20:46:42.503Z,24.80
2023-03-31T20:49:10.957Z,22.70
2023-03-31T20:51:39.029Z,24.10
2023-03-31T20:54:08.424Z,21.30
2023-03-31T20:56:39.603Z,24.10
2023-03-31T20:59:12.266Z,24.20
2023-03-31T21:01:42.447Z,19.70
2023-03-31T21:04:12.305Z,22.30
2023-03-31T21:06:41.995Z,20.40
2023-03-31T21:09:11.913Z,23.30
2023-03-31T21:11:40.833Z,22.20
2023-03-31T21:14:15.728Z,22.00
2023-03-31T21:16:43.931Z,19.40
2023-03-31T21:19:12.541Z,23.50
2023-03-31T21:21:41.625Z,21.10
2023-03-31T21:24:11.325Z,22.40
2023-03-31T21:26:41.755Z,22.40
2023-03-31T21:29:12.699Z,24.00
2023-03-31T21:31:42.138Z,20.80
2023-03-31T21:34:11.357Z,20.00
2023-03-31T21:36:39.461Z,24.80
2023-03-31T21:39:07.899Z,22.70
2023-03-31T21:41:39.963Z,21.40
2023-03-31T21:44:09.040Z,23.60
2023-03-31T21:46:37.809Z,22.20
2023-03-31T21:49:06.467Z,21.90
2023-03-31T21:51:34.390Z,23.50
2023-03-31T21:54:02.510Z,20.30
2023-03-31T21:56:31.980Z,22.30
2023-03-31T21:59:04.382Z,22.10
2023-03-31T22:01:32.588Z,22.10
2023-03-31T22:04:00.776Z,21.40
2023-03-31T22:06:29.434Z,19.20
2023-03-31T22:08:57.351Z,24.30
2023-03-31T22:11:29.733Z,25.30
2023-03-31T22:13:58.196Z,20.80
2023-03-31T22:16:26.179Z,22.50
2023-03-31T22:18:54.911Z,26.90
2023-03-31T22:21:24.503Z,22.60
2023-03-31T22:23:59.973Z,21.40
2023-03-31T22:26:29.218Z,21.90
2023-03-31T22:29:04.596Z,24.40
2023-03-31T22:31:32.978Z,26.10
2023-03-31T22:34:01.751Z,24.40
2023-03-31T22:36:30.378Z,23.10
2023-03-31T22:38:58.609Z,22.50
2023-03-31T22:41:26.463Z,23.50
2023-03-31T22:43:54.372Z,24.20
2023-03-31T22:46:22.357Z,25.60
2023-03-31T22:48:50.612Z,27.40
2023-03-31T22:51:19.216Z,23.40
2023-03-31T22:53:51.820Z,25.80
2023-03-31T22:56:21.154Z,25.40
2023-03-31T22:58:52.518Z,22.40
2023-03-31T23:01:21.134Z,20.50
2023-03-31T23:03:50.100Z,22.60
2023-03-31T23:06:18.227Z,21.20
2023-03-31T23:08:49.096Z,25.20
2023-03-31T23:11:18.891Z,20.80
2023-03-31T23:13:50.373Z,25.60
2023-03-31T23:16:23.485Z,22.70
2023-03-31T23:18:52.952Z,23.20
2023-03-31T23:21:24.301Z,22.40
2023-03-31T23:23:53.777Z,22.00
2023-03-31T23:26:22.987Z,22.10
2023-03-31T23:28:51.159Z,25.00
2023-03-31T23:31:21.295Z,23.10
2023-03-31T23:33:49.837Z,22.90
2023-03-31T23:36:18.493Z,22.90
2023-03-31T23:38:50.580Z,24.70
2023-03-31T23:41:18.963Z,22.60
2023-03-31T23:43:46.951Z,22.40
2023-03-31T23:46:15.376Z,22.60
2023-03-31T23:48:43.308Z,22.40
2023-03-31T23:51:15.469Z,21.70
2023-03-31T23:53:44.744Z,23.50
2023-03-31T23:56:17.184Z,22.50
2023-03-31T23:58:45.291Z,21.10
